sensor_id;sensor_type;location;lat;lon;timestamp;P1;durP1;ratioP1;P2;durP2;ratioP2
37787;SDS011;23627;53.302;-6.362;2023-06-14T00:01:57;4.97;;;4.55;;
37787;SDS011;23627;53.302;-6.362;2023-06-14T00:04:23;4.80;;;4.35;;
37787;SDS011;23627;53.302;-6.362;2023-06-14T00:06:50;5.00;;;4.50;;
37787;SDS011;23627;53.302;-6.362;2023-06-14T00:09:16;5.10;;;4.60;;
37787;SDS011;23627;53.302;-6.362;2023-06-14T00:11:44;5.15;;;4.65;;
37787;SDS011;23627;53.302;-6.362;2023-06-14T00:14:10;5.10;;;4.60;;
37787;SDS011;23627;53.302;-6.362;2023-06-14T00:16:36;5.43;;;4.93;;
37787;SDS011;23627;53.302;-6.362;2023-06-14T00:19:03;5.32;;;4.82;;
37787;SDS011;23627;53.302;-6.362;2023-06-14T00:21:30;5.50;;;4.60;;
37787;SDS011;23627;53.302;-6.362;2023-06-14T00:23:57;4.65;;;4.25;;
37787;SDS011;23627;53.302;-6.362;2023-06-14T00:26:23;5.75;;;4.60;;
37787;SDS011;23627;53.302;-6.362;2023-06-14T00:28:50;4.97;;;4.32;;
37787;SDS011;23627;53.302;-6.362;2023-06-14T00:31:16;5.22;;;4.72;;
37787;SDS011;23627;53.302;-6.362;2023-06-14T00:33:42;4.63;;;4.22;;
37787;SDS011;23627;53.302;-6.362;2023-06-14T00:36:08;4.78;;;4.38;;
37787;SDS011;23627;53.302;-6.362;2023-06-14T00:38:33;5.18;;;4.70;;
37787;SDS011;23627;53.302;-6.362;2023-06-14T00:41:00;5.70;;;5.10;;
37787;SDS011;23627;53.302;-6.362;2023-06-14T00:43:25;5.47;;;4.97;;
37787;SDS011;23627;53.302;-6.362;2023-06-14T00:45:51;4.82;;;4.43;;
37787;SDS011;23627;53.302;-6.362;2023-06-14T00:48:17;5.40;;;4.90;;
37787;SDS011;23627;53.302;-6.362;2023-06-14T00:50:44;5.57;;;4.55;;
37787;SDS011;23627;53.302;-6.362;2023-06-14T00:53:14;5.35;;;4.85;;
37787;SDS011;23627;53.302;-6.362;2023-06-14T00:55:40;5.50;;;5.00;;
37787;SDS011;23627;53.302;-6.362;2023-06-14T00:58:06;5.65;;;5.10;;
37787;SDS011;23627;53.302;-6.362;2023-06-14T01:00:33;5.20;;;4.70;;
37787;SDS011;23627;53.302;-6.362;2023-06-14T01:02:59;5.65;;;5.05;;
37787;SDS011;23627;53.302;-6.362;2023-06-14T01:05:26;5.90;;;5.30;;
37787;SDS011;23627;53.302;-6.362;2023-06-14T01:15:48;5.95;;;5.00;;
37787;SDS011;23627;53.302;-6.362;2023-06-14T01:18:15;6.00;;;5.40;;
37787;SDS011;23627;53.302;-6.362;2023-06-14T01:20:44;5.30;;;4.85;;
37787;SDS011;23627;53.302;-6.362;2023-06-14T01:23:16;5.80;;;5.30;;
37787;SDS011;23627;53.302;-6.362;2023-06-14T01:25:43;5.85;;;5.30;;
37787;SDS011;23627;53.302;-6.362;2023-06-14T01:28:09;8.35;;;5.65;;
37787;SDS011;23627;53.302;-6.362;2023-06-14T01:30:38;6.97;;;5.50;;
37787;SDS011;23627;53.302;-6.362;2023-06-14T01:33:13;5.85;;;5.25;;
37787;SDS011;23627;53.302;-6.362;2023-06-14T01:35:43;5.53;;;5.03;;
37787;SDS011;23627;53.302;-6.362;2023-06-14T01:38:10;6.18;;;5.45;;
37787;SDS011;23627;53.302;-6.362;2023-06-14T01:40:39;5.97;;;5.38;;
37787;SDS011;23627;53.302;-6.362;2023-06-14T01:43:05;5.95;;;5.35;;
37787;SDS011;23627;53.302;-6.362;2023-06-14T01:45:32;5.32;;;4.82;;
37787;SDS011;23627;53.302;-6.362;2023-06-14T01:48:00;5.55;;;5.05;;
37787;SDS011;23627;53.302;-6.362;2023-06-14T01:50:32;6.13;;;5.63;;
37787;SDS011;23627;53.302;-6.362;2023-06-14T01:55:25;6.90;;;6.30;;
37787;SDS011;23627;53.302;-6.362;2023-06-14T01:57:51;7.18;;;5.80;;
37787;SDS011;23627;53.302;-6.362;2023-06-14T02:00:18;7.05;;;5.60;;
37787;SDS011;23627;53.302;-6.362;2023-06-14T02:02:44;6.05;;;5.45;;
37787;SDS011;23627;53.302;-6.362;2023-06-14T02:05:10;6.30;;;5.68;;
37787;SDS011;23627;53.302;-6.362;2023-06-14T02:07:37;6.32;;;5.72;;
37787;SDS011;23627;53.302;-6.362;2023-06-14T02:10:03;6.25;;;5.63;;
37787;SDS011;23627;53.302;-6.362;2023-06-14T02:12:30;6.53;;;5.80;;
37787;SDS011;23627;53.302;-6.362;2023-06-14T02:14:56;6.65;;;5.93;;
37787;SDS011;23627;53.302;-6.362;2023-06-14T02:17:23;6.57;;;5.97;;
37787;SDS011;23627;53.302;-6.362;2023-06-14T02:19:49;6.07;;;5.50;;
37787;SDS011;23627;53.302;-6.362;2023-06-14T02:22:15;6.78;;;5.80;;
37787;SDS011;23627;53.302;-6.362;2023-06-14T02:24:42;6.10;;;5.50;;
37787;SDS011;23627;53.302;-6.362;2023-06-14T02:27:07;6.60;;;6.00;;
37787;SDS011;23627;53.302;-6.362;2023-06-14T02:29:35;6.15;;;5.53;;
37787;SDS011;23627;53.302;-6.362;2023-06-14T02:32:02;6.50;;;5.93;;
37787;SDS011;23627;53.302;-6.362;2023-06-14T02:34:28;6.10;;;5.50;;
37787;SDS011;23627;53.302;-6.362;2023-06-14T02:36:54;6.00;;;5.47;;
37787;SDS011;23627;53.302;-6.362;2023-06-14T02:39:20;6.10;;;5.45;;
37787;SDS011;23627;53.302;-6.362;2023-06-14T02:41:48;6.32;;;5.72;;
37787;SDS011;23627;53.302;-6.362;2023-06-14T02:44:20;6.30;;;5.70;;
37787;SDS011;23627;53.302;-6.362;2023-06-14T02:46:53;6.32;;;5.53;;
37787;SDS011;23627;53.302;-6.362;2023-06-14T02:49:21;5.65;;;5.15;;
37787;SDS011;23627;53.302;-6.362;2023-06-14T02:51:47;6.38;;;5.78;;
37787;SDS011;23627;53.302;-6.362;2023-06-14T02:54:13;6.35;;;5.75;;
37787;SDS011;23627;53.302;-6.362;2023-06-14T02:56:39;6.18;;;5.45;;
37787;SDS011;23627;53.302;-6.362;2023-06-14T02:59:05;6.25;;;5.65;;
37787;SDS011;23627;53.302;-6.362;2023-06-14T03:01:32;5.80;;;5.20;;
37787;SDS011;23627;53.302;-6.362;2023-06-14T03:04:06;6.47;;;5.88;;
37787;SDS011;23627;53.302;-6.362;2023-06-14T03:06:34;5.95;;;5.45;;
37787;SDS011;23627;53.302;-6.362;2023-06-14T03:09:02;6.88;;;5.90;;
37787;SDS011;23627;53.302;-6.362;2023-06-14T03:11:30;6.15;;;5.55;;
37787;SDS011;23627;53.302;-6.362;2023-06-14T03:13:56;6.22;;;5.63;;
37787;SDS011;23627;53.302;-6.362;2023-06-14T03:16:22;6.30;;;5.70;;
37787;SDS011;23627;53.302;-6.362;2023-06-14T03:18:52;6.03;;;5.43;;
37787;SDS011;23627;53.302;-6.362;2023-06-14T03:21:18;6.28;;;5.68;;
37787;SDS011;23627;53.302;-6.362;2023-06-14T03:23:48;5.43;;;4.93;;
37787;SDS011;23627;53.302;-6.362;2023-06-14T03:26:14;6.45;;;5.80;;
37787;SDS011;23627;53.302;-6.362;2023-06-14T03:28:45;5.93;;;4.90;;
37787;SDS011;23627;53.302;-6.362;2023-06-14T03:31:12;6.18;;;5.15;;
37787;SDS011;23627;53.302;-6.362;2023-06-14T03:33:38;5.95;;;5.20;;
37787;SDS011;23627;53.302;-6.362;2023-06-14T03:36:05;5.88;;;5.28;;
37787;SDS011;23627;53.302;-6.362;2023-06-14T03:38:32;5.72;;;5.20;;
37787;SDS011;23627;53.302;-6.362;2023-06-14T03:40:58;5.70;;;5.20;;
37787;SDS011;23627;53.302;-6.362;2023-06-14T03:43:24;5.35;;;4.85;;
37787;SDS011;23627;53.302;-6.362;2023-06-14T03:45:50;6.82;;;5.30;;
37787;SDS011;23627;53.302;-6.362;2023-06-14T03:48:16;5.20;;;4.72;;
37787;SDS011;23627;53.302;-6.362;2023-06-14T03:50:42;5.45;;;4.95;;
37787;SDS011;23627;53.302;-6.362;2023-06-14T03:53:09;5.63;;;5.03;;
37787;SDS011;23627;53.302;-6.362;2023-06-14T03:55:36;5.85;;;5.25;;
37787;SDS011;23627;53.302;-6.362;2023-06-14T03:58:02;5.35;;;4.85;;
37787;SDS011;23627;53.302;-6.362;2023-06-14T04:00:29;6.75;;;5.10;;
37787;SDS011;23627;53.302;-6.362;2023-06-14T04:02:55;5.47;;;4.97;;
37787;SDS011;23627;53.302;-6.362;2023-06-14T04:05:21;5.38;;;4.88;;
37787;SDS011;23627;53.302;-6.362;2023-06-14T04:07:46;7.00;;;5.05;;
37787;SDS011;23627;53.302;-6.362;2023-06-14T04:10:13;5.28;;;4.78;;
37787;SDS011;23627;53.302;-6.362;2023-06-14T04:12:41;5.53;;;5.03;;
37787;SDS011;23627;53.302;-6.362;2023-06-14T04:15:07;5.45;;;4.95;;
37787;SDS011;23627;53.302;-6.362;2023-06-14T04:17:34;6.50;;;5.15;;
37787;SDS011;23627;53.302;-6.362;2023-06-14T04:20:01;5.18;;;4.68;;
37787;SDS011;23627;53.302;-6.362;2023-06-14T04:22:29;5.28;;;4.68;;
37787;SDS011;23627;53.302;-6.362;2023-06-14T04:24:55;5.22;;;4.72;;
37787;SDS011;23627;53.302;-6.362;2023-06-14T04:27:22;5.20;;;4.70;;
37787;SDS011;23627;53.302;-6.362;2023-06-14T04:29:54;5.03;;;4.50;;
37787;SDS011;23627;53.302;-6.362;2023-06-14T04:32:24;6.15;;;4.65;;
37787;SDS011;23627;53.302;-6.362;2023-06-14T04:34:57;5.35;;;4.55;;
37787;SDS011;23627;53.302;-6.362;2023-06-14T04:37:24;5.18;;;4.70;;
37787;SDS011;23627;53.302;-6.362;2023-06-14T04:39:54;5.38;;;4.88;;
37787;SDS011;23627;53.302;-6.362;2023-06-14T04:42:21;6.00;;;4.85;;
37787;SDS011;23627;53.302;-6.362;2023-06-14T04:44:50;6.57;;;4.40;;
37787;SDS011;23627;53.302;-6.362;2023-06-14T04:47:17;5.10;;;4.60;;
37787;SDS011;23627;53.302;-6.362;2023-06-14T04:49:43;5.35;;;4.47;;
37787;SDS011;23627;53.302;-6.362;2023-06-14T04:52:09;5.35;;;4.53;;
37787;SDS011;23627;53.302;-6.362;2023-06-14T04:54:38;5.10;;;4.60;;
37787;SDS011;23627;53.302;-6.362;2023-06-14T04:57:14;5.28;;;4.70;;
37787;SDS011;23627;53.302;-6.362;2023-06-14T04:59:43;5.22;;;4.50;;
37787;SDS011;23627;53.302;-6.362;2023-06-14T05:02:09;5.57;;;5.07;;
37787;SDS011;23627;53.302;-6.362;2023-06-14T05:04:36;5.63;;;4.45;;
37787;SDS011;23627;53.302;-6.362;2023-06-14T05:07:08;4.47;;;4.07;;
37787;SDS011;23627;53.302;-6.362;2023-06-14T05:09:35;5.30;;;4.63;;
37787;SDS011;23627;53.302;-6.362;2023-06-14T05:12:01;5.00;;;4.50;;
37787;SDS011;23627;53.302;-6.362;2023-06-14T05:14:27;5.25;;;4.75;;
37787;SDS011;23627;53.302;-6.362;2023-06-14T05:16:53;5.80;;;4.43;;
37787;SDS011;23627;53.302;-6.362;2023-06-14T05:19:19;4.82;;;4.30;;
37787;SDS011;23627;53.302;-6.362;2023-06-14T05:21:46;5.22;;;4.68;;
37787;SDS011;23627;53.302;-6.362;2023-06-14T05:24:12;5.32;;;4.50;;
37787;SDS011;23627;53.302;-6.362;2023-06-14T05:26:39;5.07;;;4.50;;
37787;SDS011;23627;53.302;-6.362;2023-06-14T05:29:05;6.13;;;4.55;;
37787;SDS011;23627;53.302;-6.362;2023-06-14T05:31:31;5.10;;;4.55;;
37787;SDS011;23627;53.302;-6.362;2023-06-14T05:33:57;5.78;;;4.50;;
37787;SDS011;23627;53.302;-6.362;2023-06-14T05:36:23;5.10;;;4.60;;
37787;SDS011;23627;53.302;-6.362;2023-06-14T05:38:50;5.10;;;4.55;;
37787;SDS011;23627;53.302;-6.362;2023-06-14T05:41:16;4.78;;;4.28;;
37787;SDS011;23627;53.302;-6.362;2023-06-14T05:43:42;5.40;;;4.38;;
37787;SDS011;23627;53.302;-6.362;2023-06-14T05:46:07;4.72;;;4.32;;
37787;SDS011;23627;53.302;-6.362;2023-06-14T05:48:33;4.43;;;4.03;;
37787;SDS011;23627;53.302;-6.362;2023-06-14T05:50:59;5.07;;;4.47;;
37787;SDS011;23627;53.302;-6.362;2023-06-14T05:53:25;4.63;;;4.22;;
37787;SDS011;23627;53.302;-6.362;2023-06-14T05:55:51;4.40;;;4.00;;
37787;SDS011;23627;53.302;-6.362;2023-06-14T05:58:19;4.65;;;4.05;;
37787;SDS011;23627;53.302;-6.362;2023-06-14T06:00:46;5.40;;;4.40;;
37787;SDS011;23627;53.302;-6.362;2023-06-14T06:03:12;5.70;;;4.53;;
37787;SDS011;23627;53.302;-6.362;2023-06-14T06:05:38;5.70;;;4.30;;
37787;SDS011;23627;53.302;-6.362;2023-06-14T06:08:06;6.68;;;4.50;;
37787;SDS011;23627;53.302;-6.362;2023-06-14T06:10:33;5.20;;;4.70;;
37787;SDS011;23627;53.302;-6.362;2023-06-14T06:13:01;5.13;;;4.47;;
37787;SDS011;23627;53.302;-6.362;2023-06-14T06:15:33;4.95;;;4.20;;
37787;SDS011;23627;53.302;-6.362;2023-06-14T06:34:33;4.70;;;4.10;;
37787;SDS011;23627;53.302;-6.362;2023-06-14T06:37:01;5.70;;;4.00;;
37787;SDS011;23627;53.302;-6.362;2023-06-14T06:39:26;5.38;;;4.18;;
37787;SDS011;23627;53.302;-6.362;2023-06-14T06:41:52;4.43;;;3.63;;
37787;SDS011;23627;53.302;-6.362;2023-06-14T06:44:19;5.03;;;3.70;;
37787;SDS011;23627;53.302;-6.362;2023-06-14T06:46:45;5.72;;;4.10;;
37787;SDS011;23627;53.302;-6.362;2023-06-14T06:49:10;5.05;;;3.92;;
37787;SDS011;23627;53.302;-6.362;2023-06-14T06:51:53;4.68;;;4.18;;
37787;SDS011;23627;53.302;-6.362;2023-06-14T06:54:26;5.00;;;3.97;;
37787;SDS011;23627;53.302;-6.362;2023-06-14T06:56:51;5.28;;;3.95;;
37787;SDS011;23627;53.302;-6.362;2023-06-14T06:59:17;5.60;;;3.90;;
37787;SDS011;23627;53.302;-6.362;2023-06-14T07:01:43;4.70;;;3.97;;
37787;SDS011;23627;53.302;-6.362;2023-06-14T07:04:08;4.25;;;3.58;;
37787;SDS011;23627;53.302;-6.362;2023-06-14T07:06:34;5.07;;;3.67;;
37787;SDS011;23627;53.302;-6.362;2023-06-14T07:09:02;4.25;;;3.67;;
37787;SDS011;23627;53.302;-6.362;2023-06-14T07:11:30;4.15;;;3.47;;
37787;SDS011;23627;53.302;-6.362;2023-06-14T07:13:55;4.38;;;3.70;;
37787;SDS011;23627;53.302;-6.362;2023-06-14T07:16:21;3.83;;;3.13;;
37787;SDS011;23627;53.302;-6.362;2023-06-14T07:18:47;4.45;;;3.70;;
37787;SDS011;23627;53.302;-6.362;2023-06-14T07:21:13;3.58;;;3.28;;
37787;SDS011;23627;53.302;-6.362;2023-06-14T07:23:38;4.60;;;3.85;;
37787;SDS011;23627;53.302;-6.362;2023-06-14T07:26:04;4.47;;;3.33;;
37787;SDS011;23627;53.302;-6.362;2023-06-14T07:28:30;3.83;;;3.42;;
37787;SDS011;23627;53.302;-6.362;2023-06-14T07:30:56;4.55;;;3.35;;
37787;SDS011;23627;53.302;-6.362;2023-06-14T07:33:22;3.75;;;3.35;;
37787;SDS011;23627;53.302;-6.362;2023-06-14T07:35:48;4.18;;;3.25;;
37787;SDS011;23627;53.302;-6.362;2023-06-14T07:38:14;3.42;;;3.05;;
37787;SDS011;23627;53.302;-6.362;2023-06-14T07:40:40;3.70;;;3.30;;
37787;SDS011;23627;53.302;-6.362;2023-06-14T07:43:06;3.50;;;3.20;;
37787;SDS011;23627;53.302;-6.362;2023-06-14T07:45:31;3.70;;;3.20;;
37787;SDS011;23627;53.302;-6.362;2023-06-14T07:47:57;3.50;;;3.10;;
37787;SDS011;23627;53.302;-6.362;2023-06-14T07:50:23;3.95;;;3.00;;
37787;SDS011;23627;53.302;-6.362;2023-06-14T07:52:48;3.50;;;3.15;;
37787;SDS011;23627;53.302;-6.362;2023-06-14T07:55:14;3.45;;;3.15;;
37787;SDS011;23627;53.302;-6.362;2023-06-14T07:57:40;5.03;;;2.92;;
37787;SDS011;23627;53.302;-6.362;2023-06-14T08:00:07;4.60;;;3.17;;
37787;SDS011;23627;53.302;-6.362;2023-06-14T08:02:36;4.18;;;3.00;;
37787;SDS011;23627;53.302;-6.362;2023-06-14T08:05:02;3.85;;;3.08;;
37787;SDS011;23627;53.302;-6.362;2023-06-14T08:07:28;4.63;;;3.22;;
37787;SDS011;23627;53.302;-6.362;2023-06-14T08:09:53;3.25;;;2.95;;
37787;SDS011;23627;53.302;-6.362;2023-06-14T08:12:19;3.60;;;3.10;;
37787;SDS011;23627;53.302;-6.362;2023-06-14T08:14:45;3.30;;;3.00;;
37787;SDS011;23627;53.302;-6.362;2023-06-14T08:17:11;3.53;;;3.22;;
37787;SDS011;23627;53.302;-6.362;2023-06-14T08:19:37;4.18;;;2.80;;
37787;SDS011;23627;53.302;-6.362;2023-06-14T08:22:02;3.53;;;3.00;;
37787;SDS011;23627;53.302;-6.362;2023-06-14T08:24:28;3.67;;;3.00;;
37787;SDS011;23627;53.302;-6.362;2023-06-14T08:26:54;3.97;;;3.08;;
37787;SDS011;23627;53.302;-6.362;2023-06-14T08:29:21;3.88;;;2.78;;
37787;SDS011;23627;53.302;-6.362;2023-06-14T08:31:47;3.78;;;3.15;;
37787;SDS011;23627;53.302;-6.362;2023-06-14T08:34:13;3.88;;;2.92;;
37787;SDS011;23627;53.302;-6.362;2023-06-14T08:36:39;3.58;;;3.00;;
37787;SDS011;23627;53.302;-6.362;2023-06-14T08:39:06;4.75;;;3.17;;
37787;SDS011;23627;53.302;-6.362;2023-06-14T08:41:34;4.88;;;2.92;;
37787;SDS011;23627;53.302;-6.362;2023-06-14T08:44:01;3.67;;;3.00;;
37787;SDS011;23627;53.302;-6.362;2023-06-14T08:46:27;3.65;;;3.22;;
37787;SDS011;23627;53.302;-6.362;2023-06-14T08:48:55;4.15;;;3.17;;
37787;SDS011;23627;53.302;-6.362;2023-06-14T08:51:25;3.45;;;3.05;;
37787;SDS011;23627;53.302;-6.362;2023-06-14T08:53:53;3.47;;;3.15;;
37787;SDS011;23627;53.302;-6.362;2023-06-14T08:56:27;3.77;;;3.10;;
37787;SDS011;23627;53.302;-6.362;2023-06-14T08:58:54;3.50;;;2.90;;
37787;SDS011;23627;53.302;-6.362;2023-06-14T09:01:21;3.88;;;3.17;;
37787;SDS011;23627;53.302;-6.362;2023-06-14T09:03:48;3.58;;;3.20;;
37787;SDS011;23627;53.302;-6.362;2023-06-14T09:06:15;4.63;;;3.03;;
37787;SDS011;23627;53.302;-6.362;2023-06-14T09:08:44;3.38;;;2.95;;
37787;SDS011;23627;53.302;-6.362;2023-06-14T09:11:12;4.68;;;3.20;;
37787;SDS011;23627;53.302;-6.362;2023-06-14T09:13:39;3.30;;;3.00;;
37787;SDS011;23627;53.302;-6.362;2023-06-14T09:16:08;4.85;;;3.40;;
37787;SDS011;23627;53.302;-6.362;2023-06-14T09:18:38;3.63;;;3.20;;
37787;SDS011;23627;53.302;-6.362;2023-06-14T09:21:06;4.18;;;3.10;;
37787;SDS011;23627;53.302;-6.362;2023-06-14T09:23:33;3.92;;;3.10;;
37787;SDS011;23627;53.302;-6.362;2023-06-14T09:26:13;3.60;;;2.97;;
37787;SDS011;23627;53.302;-6.362;2023-06-14T09:28:43;3.97;;;3.15;;
37787;SDS011;23627;53.302;-6.362;2023-06-14T09:31:13;3.72;;;3.00;;
37787;SDS011;23627;53.302;-6.362;2023-06-14T09:33:47;3.42;;;2.90;;
37787;SDS011;23627;53.302;-6.362;2023-06-14T09:36:15;3.30;;;2.83;;
37787;SDS011;23627;53.302;-6.362;2023-06-14T09:39:06;4.22;;;2.78;;
37787;SDS011;23627;53.302;-6.362;2023-06-14T09:41:33;3.20;;;2.90;;
37787;SDS011;23627;53.302;-6.362;2023-06-14T09:44:00;4.88;;;2.90;;
37787;SDS011;23627;53.302;-6.362;2023-06-14T09:46:27;2.67;;;2.47;;
37787;SDS011;23627;53.302;-6.362;2023-06-14T09:48:57;3.60;;;2.60;;
37787;SDS011;23627;53.302;-6.362;2023-06-14T09:51:24;4.25;;;2.55;;
37787;SDS011;23627;53.302;-6.362;2023-06-14T09:53:51;4.47;;;2.80;;
37787;SDS011;23627;53.302;-6.362;2023-06-14T09:58:59;3.47;;;2.42;;
37787;SDS011;23627;53.302;-6.362;2023-06-14T10:01:29;3.08;;;2.25;;
37787;SDS011;23627;53.302;-6.362;2023-06-14T10:04:01;3.75;;;2.58;;
37787;SDS011;23627;53.302;-6.362;2023-06-14T10:06:29;3.85;;;2.55;;
37787;SDS011;23627;53.302;-6.362;2023-06-14T10:08:59;3.30;;;2.40;;
37787;SDS011;23627;53.302;-6.362;2023-06-14T10:11:26;3.60;;;2.40;;
37787;SDS011;23627;53.302;-6.362;2023-06-14T10:13:53;3.65;;;2.30;;
37787;SDS011;23627;53.302;-6.362;2023-06-14T10:21:54;3.05;;;2.42;;
37787;SDS011;23627;53.302;-6.362;2023-06-14T10:24:23;4.90;;;2.60;;
37787;SDS011;23627;53.302;-6.362;2023-06-14T10:26:56;3.08;;;2.20;;
37787;SDS011;23627;53.302;-6.362;2023-06-14T10:29:24;3.83;;;2.28;;
37787;SDS011;23627;53.302;-6.362;2023-06-14T10:31:50;3.05;;;2.22;;
37787;SDS011;23627;53.302;-6.362;2023-06-14T10:34:31;2.60;;;2.30;;
37787;SDS011;23627;53.302;-6.362;2023-06-14T10:39:38;3.78;;;2.28;;
37787;SDS011;23627;53.302;-6.362;2023-06-14T10:42:06;3.58;;;2.15;;
37787;SDS011;23627;53.302;-6.362;2023-06-14T10:44:38;2.75;;;2.33;;
37787;SDS011;23627;53.302;-6.362;2023-06-14T10:47:06;3.08;;;2.25;;
37787;SDS011;23627;53.302;-6.362;2023-06-14T10:52:08;2.90;;;2.20;;
37787;SDS011;23627;53.302;-6.362;2023-06-14T10:57:29;4.30;;;2.40;;
37787;SDS011;23627;53.302;-6.362;2023-06-14T10:59:59;4.65;;;2.70;;
37787;SDS011;23627;53.302;-6.362;2023-06-14T11:05:26;3.58;;;2.10;;
37787;SDS011;23627;53.302;-6.362;2023-06-14T11:10:38;4.25;;;2.58;;
37787;SDS011;23627;53.302;-6.362;2023-06-14T11:13:05;4.53;;;2.50;;
37787;SDS011;23627;53.302;-6.362;2023-06-14T11:15:34;2.90;;;2.33;;
37787;SDS011;23627;53.302;-6.362;2023-06-14T11:18:05;3.08;;;2.30;;
37787;SDS011;23627;53.302;-6.362;2023-06-14T11:20:32;3.45;;;2.35;;
37787;SDS011;23627;53.302;-6.362;2023-06-14T11:23:00;5.50;;;2.10;;
37787;SDS011;23627;53.302;-6.362;2023-06-14T11:25:27;3.00;;;2.20;;
37787;SDS011;23627;53.302;-6.362;2023-06-14T11:27:55;8.10;;;2.30;;
37787;SDS011;23627;53.302;-6.362;2023-06-14T11:30:22;5.00;;;2.20;;
37787;SDS011;23627;53.302;-6.362;2023-06-14T11:32:49;3.75;;;2.40;;
37787;SDS011;23627;53.302;-6.362;2023-06-14T11:35:15;2.38;;;2.17;;
37787;SDS011;23627;53.302;-6.362;2023-06-14T11:37:42;3.00;;;2.40;;
37787;SDS011;23627;53.302;-6.362;2023-06-14T11:40:09;3.15;;;2.30;;
37787;SDS011;23627;53.302;-6.362;2023-06-14T11:42:37;4.40;;;2.33;;
37787;SDS011;23627;53.302;-6.362;2023-06-14T11:45:07;3.67;;;2.38;;
37787;SDS011;23627;53.302;-6.362;2023-06-14T11:47:34;4.47;;;2.38;;
37787;SDS011;23627;53.302;-6.362;2023-06-14T11:50:04;3.45;;;2.60;;
37787;SDS011;23627;53.302;-6.362;2023-06-14T11:52:32;3.60;;;2.45;;
37787;SDS011;23627;53.302;-6.362;2023-06-14T11:58:19;4.40;;;2.78;;
37787;SDS011;23627;53.302;-6.362;2023-06-14T12:00:48;5.03;;;2.60;;
37787;SDS011;23627;53.302;-6.362;2023-06-14T12:03:14;3.72;;;2.70;;
37787;SDS011;23627;53.302;-6.362;2023-06-14T12:05:40;4.25;;;2.38;;
37787;SDS011;23627;53.302;-6.362;2023-06-14T12:08:06;4.90;;;2.75;;
37787;SDS011;23627;53.302;-6.362;2023-06-14T12:10:42;3.40;;;2.38;;
37787;SDS011;23627;53.302;-6.362;2023-06-14T12:13:08;4.80;;;2.92;;
37787;SDS011;23627;53.302;-6.362;2023-06-14T12:15:34;3.13;;;2.28;;
37787;SDS011;23627;53.302;-6.362;2023-06-14T12:18:00;3.20;;;2.30;;
37787;SDS011;23627;53.302;-6.362;2023-06-14T12:20:31;4.20;;;2.60;;
37787;SDS011;23627;53.302;-6.362;2023-06-14T12:23:00;5.43;;;2.45;;
37787;SDS011;23627;53.302;-6.362;2023-06-14T12:25:33;5.13;;;2.60;;
37787;SDS011;23627;53.302;-6.362;2023-06-14T12:28:07;3.90;;;2.40;;
37787;SDS011;23627;53.302;-6.362;2023-06-14T12:30:34;3.47;;;2.60;;
37787;SDS011;23627;53.302;-6.362;2023-06-14T12:33:01;3.65;;;2.50;;
37787;SDS011;23627;53.302;-6.362;2023-06-14T12:35:27;4.10;;;3.00;;
37787;SDS011;23627;53.302;-6.362;2023-06-14T12:37:53;3.70;;;2.83;;
37787;SDS011;23627;53.302;-6.362;2023-06-14T12:40:19;3.95;;;2.60;;
37787;SDS011;23627;53.302;-6.362;2023-06-14T12:42:44;3.55;;;2.72;;
37787;SDS011;23627;53.302;-6.362;2023-06-14T12:45:12;2.90;;;2.38;;
37787;SDS011;23627;53.302;-6.362;2023-06-14T12:47:38;5.45;;;2.70;;
37787;SDS011;23627;53.302;-6.362;2023-06-14T12:50:04;5.45;;;2.60;;
37787;SDS011;23627;53.302;-6.362;2023-06-14T12:52:31;5.20;;;2.60;;
37787;SDS011;23627;53.302;-6.362;2023-06-14T12:55:00;3.17;;;2.38;;
37787;SDS011;23627;53.302;-6.362;2023-06-14T12:57:28;7.90;;;3.08;;
37787;SDS011;23627;53.302;-6.362;2023-06-14T12:59:53;15.23;;;3.90;;
37787;SDS011;23627;53.302;-6.362;2023-06-14T13:02:19;12.52;;;2.80;;
37787;SDS011;23627;53.302;-6.362;2023-06-14T13:04:49;8.23;;;3.00;;
37787;SDS011;23627;53.302;-6.362;2023-06-14T13:07:15;7.43;;;2.60;;
37787;SDS011;23627;53.302;-6.362;2023-06-14T13:09:41;5.72;;;2.63;;
37787;SDS011;23627;53.302;-6.362;2023-06-14T13:12:10;7.32;;;2.70;;
37787;SDS011;23627;53.302;-6.362;2023-06-14T13:14:37;5.85;;;2.60;;
37787;SDS011;23627;53.302;-6.362;2023-06-14T13:17:03;6.93;;;2.70;;
37787;SDS011;23627;53.302;-6.362;2023-06-14T13:19:29;6.40;;;2.50;;
37787;SDS011;23627;53.302;-6.362;2023-06-14T13:21:55;5.55;;;2.72;;
37787;SDS011;23627;53.302;-6.362;2023-06-14T13:24:21;6.47;;;2.75;;
37787;SDS011;23627;53.302;-6.362;2023-06-14T13:26:46;5.88;;;2.70;;
37787;SDS011;23627;53.302;-6.362;2023-06-14T13:29:12;5.40;;;2.72;;
37787;SDS011;23627;53.302;-6.362;2023-06-14T13:31:38;4.82;;;2.88;;
37787;SDS011;23627;53.302;-6.362;2023-06-14T13:34:04;3.72;;;2.20;;
37787;SDS011;23627;53.302;-6.362;2023-06-14T13:36:31;4.13;;;2.53;;
37787;SDS011;23627;53.302;-6.362;2023-06-14T13:38:57;3.13;;;2.50;;
37787;SDS011;23627;53.302;-6.362;2023-06-14T13:41:25;4.20;;;2.53;;
37787;SDS011;23627;53.302;-6.362;2023-06-14T13:43:56;6.25;;;2.50;;
37787;SDS011;23627;53.302;-6.362;2023-06-14T13:46:23;6.40;;;2.47;;
37787;SDS011;23627;53.302;-6.362;2023-06-14T13:48:49;3.97;;;2.67;;
37787;SDS011;23627;53.302;-6.362;2023-06-14T13:51:15;3.95;;;2.40;;
37787;SDS011;23627;53.302;-6.362;2023-06-14T13:53:42;3.72;;;2.40;;
37787;SDS011;23627;53.302;-6.362;2023-06-14T13:56:10;4.88;;;2.80;;
37787;SDS011;23627;53.302;-6.362;2023-06-14T13:58:37;3.22;;;2.63;;
37787;SDS011;23627;53.302;-6.362;2023-06-14T14:01:03;3.20;;;2.53;;
37787;SDS011;23627;53.302;-6.362;2023-06-14T14:03:29;3.47;;;2.50;;
37787;SDS011;23627;53.302;-6.362;2023-06-14T14:05:55;5.82;;;2.58;;
37787;SDS011;23627;53.302;-6.362;2023-06-14T14:08:21;3.22;;;2.42;;
37787;SDS011;23627;53.302;-6.362;2023-06-14T14:10:47;3.95;;;2.72;;
37787;SDS011;23627;53.302;-6.362;2023-06-14T14:13:13;5.47;;;2.60;;
37787;SDS011;23627;53.302;-6.362;2023-06-14T14:15:39;3.33;;;2.58;;
37787;SDS011;23627;53.302;-6.362;2023-06-14T14:18:05;3.33;;;2.13;;
37787;SDS011;23627;53.302;-6.362;2023-06-14T14:20:31;3.80;;;2.63;;
37787;SDS011;23627;53.302;-6.362;2023-06-14T14:22:56;3.35;;;2.10;;
37787;SDS011;23627;53.302;-6.362;2023-06-14T14:25:22;5.05;;;2.65;;
37787;SDS011;23627;53.302;-6.362;2023-06-14T14:27:48;3.95;;;2.50;;
37787;SDS011;23627;53.302;-6.362;2023-06-14T14:30:14;4.45;;;2.53;;
37787;SDS011;23627;53.302;-6.362;2023-06-14T14:32:41;3.25;;;2.20;;
37787;SDS011;23627;53.302;-6.362;2023-06-14T14:35:08;4.13;;;2.35;;
37787;SDS011;23627;53.302;-6.362;2023-06-14T14:37:34;4.60;;;2.20;;
37787;SDS011;23627;53.302;-6.362;2023-06-14T14:39:59;3.30;;;2.40;;
37787;SDS011;23627;53.302;-6.362;2023-06-14T14:42:25;4.75;;;2.33;;
37787;SDS011;23627;53.302;-6.362;2023-06-14T14:44:51;2.97;;;2.40;;
37787;SDS011;23627;53.302;-6.362;2023-06-14T14:47:17;5.05;;;2.50;;
37787;SDS011;23627;53.302;-6.362;2023-06-14T14:49:43;3.97;;;2.60;;
37787;SDS011;23627;53.302;-6.362;2023-06-14T14:52:09;3.17;;;2.20;;
37787;SDS011;23627;53.302;-6.362;2023-06-14T14:54:35;2.85;;;2.03;;
37787;SDS011;23627;53.302;-6.362;2023-06-14T14:57:01;4.10;;;2.42;;
37787;SDS011;23627;53.302;-6.362;2023-06-14T14:59:27;5.60;;;2.35;;
37787;SDS011;23627;53.302;-6.362;2023-06-14T15:01:52;3.20;;;2.15;;
37787;SDS011;23627;53.302;-6.362;2023-06-14T15:04:18;4.13;;;2.40;;
37787;SDS011;23627;53.302;-6.362;2023-06-14T15:06:44;4.13;;;2.10;;
37787;SDS011;23627;53.302;-6.362;2023-06-14T15:09:10;3.95;;;2.30;;
37787;SDS011;23627;53.302;-6.362;2023-06-14T15:11:36;2.63;;;2.17;;
37787;SDS011;23627;53.302;-6.362;2023-06-14T15:14:01;3.30;;;2.50;;
37787;SDS011;23627;53.302;-6.362;2023-06-14T15:16:27;4.95;;;2.25;;
37787;SDS011;23627;53.302;-6.362;2023-06-14T15:18:53;2.60;;;2.22;;
37787;SDS011;23627;53.302;-6.362;2023-06-14T15:21:18;4.22;;;2.30;;
37787;SDS011;23627;53.302;-6.362;2023-06-14T15:23:47;3.25;;;2.10;;
37787;SDS011;23627;53.302;-6.362;2023-06-14T15:26:14;3.20;;;2.40;;